sensor_id;sensor_type;location;lat;lon;timestamp;temperature;humidity
43320;DHT22;28914;48.722;9.332;2023-08-24T00:03:41;23.20;70.10
43320;DHT22;28914;48.722;9.332;2023-08-24T00:09:00;23.10;69.50
43320;DHT22;28914;48.722;9.332;2023-08-24T00:14:20;23.00;69.90
43320;DHT22;28914;48.722;9.332;2023-08-24T00:19:39;22.90;69.70
43320;DHT22;28914;48.722;9.332;2023-08-24T00:24:59;22.90;70.80
43320;DHT22;28914;48.722;9.332;2023-08-24T00:30:18;22.80;71.60
43320;DHT22;28914;48.722;9.332;2023-08-24T00:35:37;22.70;70.80
43320;DHT22;28914;48.722;9.332;2023-08-24T00:40:58;22.70;70.90
43320;DHT22;28914;48.722;9.332;2023-08-24T00:46:18;22.60;71.40
43320;DHT22;28914;48.722;9.332;2023-08-24T00:51:38;22.60;71.50
43320;DHT22;28914;48.722;9.332;2023-08-24T00:56:57;22.50;71.80
43320;DHT22;28914;48.722;9.332;2023-08-24T01:02:16;22.40;72.60
43320;DHT22;28914;48.722;9.332;2023-08-24T01:07:38;22.40;72.00
43320;DHT22;28914;48.722;9.332;2023-08-24T01:13:13;22.30;72.50
43320;DHT22;28914;48.722;9.332;2023-08-24T01:18:35;22.30;72.80
43320;DHT22;28914;48.722;9.332;2023-08-24T01:24:14;22.30;72.70
43320;DHT22;28914;48.722;9.332;2023-08-24T01:29:37;22.20;74.00
43320;DHT22;28914;48.722;9.332;2023-08-24T01:34:58;22.20;73.50
43320;DHT22;28914;48.722;9.332;2023-08-24T01:40:34;22.10;73.50
43320;DHT22;28914;48.722;9.332;2023-08-24T01:45:56;22.10;74.00
43320;DHT22;28914;48.722;9.332;2023-08-24T01:51:16;22.10;73.50
43320;DHT22;28914;48.722;9.332;2023-08-24T01:56:36;22.00;73.60
43320;DHT22;28914;48.722;9.332;2023-08-24T02:01:55;22.00;74.00
43320;DHT22;28914;48.722;9.332;2023-08-24T02:07:14;21.90;73.90
43320;DHT22;28914;48.722;9.332;2023-08-24T02:12:33;21.90;74.30
43320;DHT22;28914;48.722;9.332;2023-08-24T02:17:52;21.90;74.50
43320;DHT22;28914;48.722;9.332;2023-08-24T02:23:12;21.80;74.40
43320;DHT22;28914;48.722;9.332;2023-08-24T02:28:32;21.80;74.80
43320;DHT22;28914;48.722;9.332;2023-08-24T02:33:51;21.70;74.80
43320;DHT22;28914;48.722;9.332;2023-08-24T02:39:11;21.70;75.60
43320;DHT22;28914;48.722;9.332;2023-08-24T02:44:30;21.70;75.50
43320;DHT22;28914;48.722;9.332;2023-08-24T02:49:50;21.70;75.60
43320;DHT22;28914;48.722;9.332;2023-08-24T02:55:10;21.60;76.00
43320;DHT22;28914;48.722;9.332;2023-08-24T03:00:29;21.60;76.30
43320;DHT22;28914;48.722;9.332;2023-08-24T03:06:00;21.60;76.10
43320;DHT22;28914;48.722;9.332;2023-08-24T03:11:19;21.60;77.10
43320;DHT22;28914;48.722;9.332;2023-08-24T03:16:39;21.50;76.40
43320;DHT22;28914;48.722;9.332;2023-08-24T03:21:59;21.60;77.20
43320;DHT22;28914;48.722;9.332;2023-08-24T03:27:18;21.50;77.20
43320;DHT22;28914;48.722;9.332;2023-08-24T03:32:37;21.60;77.50
43320;DHT22;28914;48.722;9.332;2023-08-24T03:37:58;21.60;77.90
43320;DHT22;28914;48.722;9.332;2023-08-24T03:43:17;21.50;77.70
43320;DHT22;28914;48.722;9.332;2023-08-24T03:48:36;21.50;77.60
43320;DHT22;28914;48.722;9.332;2023-08-24T03:53:55;21.50;77.60
43320;DHT22;28914;48.722;9.332;2023-08-24T03:59:15;21.50;78.10
43320;DHT22;28914;48.722;9.332;2023-08-24T04:04:34;21.40;77.60
43320;DHT22;28914;48.722;9.332;2023-08-24T04:09:54;21.40;78.00
43320;DHT22;28914;48.722;9.332;2023-08-24T04:15:14;21.40;78.70
43320;DHT22;28914;48.722;9.332;2023-08-24T04:20:33;21.50;78.30
43320;DHT22;28914;48.722;9.332;2023-08-24T04:25:53;21.50;78.50
43320;DHT22;28914;48.722;9.332;2023-08-24T04:31:13;21.60;79.60
43320;DHT22;28914;48.722;9.332;2023-08-24T04:36:32;21.70;79.30
43320;DHT22;28914;48.722;9.332;2023-08-24T04:41:52;21.70;79.80
43320;DHT22;28914;48.722;9.332;2023-08-24T04:47:11;21.70;79.30
43320;DHT22;28914;48.722;9.332;2023-08-24T04:52:30;21.70;79.30
43320;DHT22;28914;48.722;9.332;2023-08-24T04:57:49;21.70;79.40
43320;DHT22;28914;48.722;9.332;2023-08-24T05:03:09;21.80;79.90
43320;DHT22;28914;48.722;9.332;2023-08-24T05:08:28;21.80;80.00
43320;DHT22;28914;48.722;9.332;2023-08-24T05:13:47;21.80;79.60
43320;DHT22;28914;48.722;9.332;2023-08-24T05:19:06;21.90;79.30
43320;DHT22;28914;48.722;9.332;2023-08-24T05:24:26;21.90;79.30
43320;DHT22;28914;48.722;9.332;2023-08-24T05:29:45;22.00;79.50
43320;DHT22;28914;48.722;9.332;2023-08-24T05:35:08;22.00;79.50
43320;DHT22;28914;48.722;9.332;2023-08-24T05:40:27;22.10;79.90
43320;DHT22;28914;48.722;9.332;2023-08-24T05:45:48;22.30;79.70
43320;DHT22;28914;48.722;9.332;2023-08-24T05:51:07;22.40;79.40
43320;DHT22;28914;48.722;9.332;2023-08-24T05:56:28;22.40;79.20
43320;DHT22;28914;48.722;9.332;2023-08-24T06:01:47;22.50;78.90
43320;DHT22;28914;48.722;9.332;2023-08-24T06:07:06;22.50;78.60
43320;DHT22;28914;48.722;9.332;2023-08-24T06:12:25;22.60;78.50
43320;DHT22;28914;48.722;9.332;2023-08-24T06:17:45;22.80;78.70
43320;DHT22;28914;48.722;9.332;2023-08-24T06:23:06;23.00;78.30
43320;DHT22;28914;48.722;9.332;2023-08-24T06:28:26;23.20;78.00
43320;DHT22;28914;48.722;9.332;2023-08-24T06:33:45;23.50;77.30
43320;DHT22;28914;48.722;9.332;2023-08-24T06:39:05;23.70;76.60
43320;DHT22;28914;48.722;9.332;2023-08-24T06:44:24;24.00;76.10
43320;DHT22;28914;48.722;9.332;2023-08-24T06:49:44;24.20;75.60
43320;DHT22;28914;48.722;9.332;2023-08-24T06:55:04;24.40;75.20
43320;DHT22;28914;48.722;9.332;2023-08-24T07:00:23;24.50;74.60
43320;DHT22;28914;48.722;9.332;2023-08-24T07:05:45;24.60;74.30
43320;DHT22;28914;48.722;9.332;2023-08-24T07:11:04;24.70;73.90
43320;DHT22;28914;48.722;9.332;2023-08-24T07:16:23;24.80;73.80
43320;DHT22;28914;48.722;9.332;2023-08-24T07:21:43;24.90;73.60
43320;DHT22;28914;48.722;9.332;2023-08-24T07:27:02;25.10;73.60
43320;DHT22;28914;48.722;9.332;2023-08-24T07:32:26;25.30;73.60
43320;DHT22;28914;48.722;9.332;2023-08-24T07:37:47;25.80;73.60
43320;DHT22;28914;48.722;9.332;2023-08-24T07:43:06;26.30;72.40
43320;DHT22;28914;48.722;9.332;2023-08-24T07:48:26;26.70;70.50
43320;DHT22;28914;48.722;9.332;2023-08-24T07:53:46;27.10;69.70
43320;DHT22;28914;48.722;9.332;2023-08-24T07:59:05;27.50;70.20
43320;DHT22;28914;48.722;9.332;2023-08-24T08:04:25;28.30;71.50
43320;DHT22;28914;48.722;9.332;2023-08-24T08:09:44;29.60;70.60
43320;DHT22;28914;48.722;9.332;2023-08-24T08:15:03;31.20;69.20
43320;DHT22;28914;48.722;9.332;2023-08-24T08:20:23;33.00;65.00
43320;DHT22;28914;48.722;9.332;2023-08-24T08:25:42;34.70;60.70
43320;DHT22;28914;48.722;9.332;2023-08-24T08:31:01;36.10;56.00
43320;DHT22;28914;48.722;9.332;2023-08-24T08:36:21;37.20;55.60
43320;DHT22;28914;48.722;9.332;2023-08-24T08:41:44;38.40;53.40
43320;DHT22;28914;48.722;9.332;2023-08-24T08:47:05;39.60;50.70
43320;DHT22;28914;48.722;9.332;2023-08-24T08:52:25;40.80;50.00
43320;DHT22;28914;48.722;9.332;2023-08-24T08:57:48;42.00;48.10
43320;DHT22;28914;48.722;9.332;2023-08-24T09:03:08;43.10;45.80
43320;DHT22;28914;48.722;9.332;2023-08-24T09:08:29;44.00;43.70
43320;DHT22;28914;48.722;9.332;2023-08-24T09:13:48;44.90;42.00
43320;DHT22;28914;48.722;9.332;2023-08-24T09:19:11;45.40;39.80
43320;DHT22;28914;48.722;9.332;2023-08-24T09:24:31;45.80;39.10
43320;DHT22;28914;48.722;9.332;2023-08-24T09:29:52;46.50;39.20
43320;DHT22;28914;48.722;9.332;2023-08-24T09:35:11;47.10;39.00
43320;DHT22;28914;48.722;9.332;2023-08-24T09:40:30;47.70;38.20
43320;DHT22;28914;48.722;9.332;2023-08-24T09:45:54;48.50;38.20
43320;DHT22;28914;48.722;9.332;2023-08-24T09:51:14;49.30;34.80
43320;DHT22;28914;48.722;9.332;2023-08-24T09:56:36;49.80;32.20
43320;DHT22;28914;48.722;9.332;2023-08-24T10:01:56;50.30;32.60
43320;DHT22;28914;48.722;9.332;2023-08-24T10:07:20;50.50;31.80
43320;DHT22;28914;48.722;9.332;2023-08-24T10:12:46;50.60;30.10
43320;DHT22;28914;48.722;9.332;2023-08-24T10:18:07;50.40;30.50
43320;DHT22;28914;48.722;9.332;2023-08-24T10:23:29;50.40;31.10
43320;DHT22;28914;48.722;9.332;2023-08-24T10:28:50;50.40;30.70
43320;DHT22;28914;48.722;9.332;2023-08-24T10:34:10;50.60;28.70
43320;DHT22;28914;48.722;9.332;2023-08-24T10:39:30;50.10;29.30
43320;DHT22;28914;48.722;9.332;2023-08-24T10:44:49;49.90;31.00
43320;DHT22;28914;48.722;9.332;2023-08-24T10:50:09;49.70;29.30
43320;DHT22;28914;48.722;9.332;2023-08-24T10:55:29;49.40;30.70
43320;DHT22;28914;48.722;9.332;2023-08-24T11:00:48;49.40;31.20
43320;DHT22;28914;48.722;9.332;2023-08-24T11:06:25;49.40;30.00
43320;DHT22;28914;48.722;9.332;2023-08-24T11:12:02;49.10;30.50
43320;DHT22;28914;48.722;9.332;2023-08-24T11:17:22;48.70;31.00
43320;DHT22;28914;48.722;9.332;2023-08-24T11:22:43;48.50;31.10
43320;DHT22;28914;48.722;9.332;2023-08-24T11:28:04;48.20;31.20
43320;DHT22;28914;48.722;9.332;2023-08-24T11:33:33;47.90;32.00
43320;DHT22;28914;48.722;9.332;2023-08-24T11:38:57;47.90;32.50
43320;DHT22;28914;48.722;9.332;2023-08-24T11:44:16;48.00;32.30
43320;DHT22;28914;48.722;9.332;2023-08-24T11:49:35;47.70;31.90
43320;DHT22;28914;48.722;9.332;2023-08-24T11:54:58;46.80;31.90
43320;DHT22;28914;48.722;9.332;2023-08-24T12:00:19;45.60;32.80
43320;DHT22;28914;48.722;9.332;2023-08-24T12:05:39;44.50;33.90
43320;DHT22;28914;48.722;9.332;2023-08-24T12:10:58;43.50;35.10
43320;DHT22;28914;48.722;9.332;2023-08-24T12:16:21;42.70;36.00
43320;DHT22;28914;48.722;9.332;2023-08-24T12:21:43;42.00;36.90
43320;DHT22;28914;48.722;9.332;2023-08-24T12:27:03;41.50;37.70
43320;DHT22;28914;48.722;9.332;2023-08-24T12:32:22;41.00;37.50
43320;DHT22;28914;48.722;9.332;2023-08-24T12:37:43;40.70;38.50
43320;DHT22;28914;48.722;9.332;2023-08-24T12:43:03;40.40;38.50
43320;DHT22;28914;48.722;9.332;2023-08-24T12:48:22;40.20;38.90
43320;DHT22;28914;48.722;9.332;2023-08-24T12:53:41;40.00;39.30
43320;DHT22;28914;48.722;9.332;2023-08-24T12:59:01;39.80;39.40
43320;DHT22;28914;48.722;9.332;2023-08-24T13:04:20;39.70;39.60
43320;DHT22;28914;48.722;9.332;2023-08-24T13:09:39;39.60;39.60
43320;DHT22;28914;48.722;9.332;2023-08-24T13:14:58;39.60;40.10
43320;DHT22;28914;48.722;9.332;2023-08-24T13:20:17;39.40;39.80
43320;DHT22;28914;48.722;9.332;2023-08-24T13:25:37;39.40;40.00
43320;DHT22;28914;48.722;9.332;2023-08-24T13:30:56;39.40;40.80
43320;DHT22;28914;48.722;9.332;2023-08-24T13:36:15;39.30;40.30
43320;DHT22;28914;48.722;9.332;2023-08-24T13:41:34;39.20;39.80
43320;DHT22;28914;48.722;9.332;2023-08-24T13:46:54;39.20;39.60
43320;DHT22;28914;48.722;9.332;2023-08-24T13:52:13;39.20;39.50
43320;DHT22;28914;48.722;9.332;2023-08-24T13:57:32;39.10;39.70
43320;DHT22;28914;48.722;9.332;2023-08-24T14:02:51;39.00;40.00
43320;DHT22;28914;48.722;9.332;2023-08-24T14:08:11;39.00;40.10
43320;DHT22;28914;48.722;9.332;2023-08-24T14:13:30;39.00;40.30
43320;DHT22;28914;48.722;9.332;2023-08-24T14:18:51;39.00;40.30
43320;DHT22;28914;48.722;9.332;2023-08-24T14:24:11;39.00;40.70
43320;DHT22;28914;48.722;9.332;2023-08-24T14:29:30;38.90;40.80
43320;DHT22;28914;48.722;9.332;2023-08-24T14:34:49;38.80;41.00
43320;DHT22;28914;48.722;9.332;2023-08-24T14:40:08;38.70;40.60
43320;DHT22;28914;48.722;9.332;2023-08-24T14:45:28;38.60;41.00
43320;DHT22;28914;48.722;9.332;2023-08-24T14:50:48;38.50;41.20
43320;DHT22;28914;48.722;9.332;2023-08-24T14:56:07;38.30;41.40
43320;DHT22;28914;48.722;9.332;2023-08-24T15:01:26;38.10;41.80
43320;DHT22;28914;48.722;9.332;2023-08-24T15:06:45;37.90;42.30
43320;DHT22;28914;48.722;9.332;2023-08-24T15:12:05;37.60;42.20
43320;DHT22;28914;48.722;9.332;2023-08-24T15:17:24;37.40;42.00
43320;DHT22;28914;48.722;9.332;2023-08-24T15:22:43;37.10;43.20
43320;DHT22;28914;48.722;9.332;2023-08-24T15:28:03;36.70;45.10
43320;DHT22;28914;48.722;9.332;2023-08-24T15:33:22;36.00;46.50
43320;DHT22;28914;48.722;9.332;2023-08-24T15:38:41;35.20;46.70
43320;DHT22;28914;48.722;9.332;2023-08-24T15:44:01;34.50;47.00
43320;DHT22;28914;48.722;9.332;2023-08-24T15:49:20;33.90;48.50
43320;DHT22;28914;48.722;9.332;2023-08-24T15:54:41;33.50;49.10
43320;DHT22;28914;48.722;9.332;2023-08-24T16:00:00;33.00;49.10
43320;DHT22;28914;48.722;9.332;2023-08-24T16:05:20;32.60;49.40
43320;DHT22;28914;48.722;9.332;2023-08-24T16:10:39;32.30;49.30
43320;DHT22;28914;48.722;9.332;2023-08-24T16:15:58;32.00;50.80
43320;DHT22;28914;48.722;9.332;2023-08-24T16:21:18;31.70;50.00
43320;DHT22;28914;48.722;9.332;2023-08-24T16:26:37;31.60;50.60
43320;DHT22;28914;48.722;9.332;2023-08-24T16:31:56;31.40;50.30
43320;DHT22;28914;48.722;9.332;2023-08-24T16:37:15;31.30;50.40
43320;DHT22;28914;48.722;9.332;2023-08-24T16:42:34;31.20;50.50
43320;DHT22;28914;48.722;9.332;2023-08-24T16:47:53;31.20;50.10
43320;DHT22;28914;48.722;9.332;2023-08-24T16:53:13;31.10;50.40
43320;DHT22;28914;48.722;9.332;2023-08-24T16:58:32;31.00;50.80
43320;DHT22;28914;48.722;9.332;2023-08-24T17:03:51;30.70;50.90
43320;DHT22;28914;48.722;9.332;2023-08-24T17:09:11;30.60;51.10
43320;DHT22;28914;48.722;9.332;2023-08-24T17:14:30;30.50;51.30
43320;DHT22;28914;48.722;9.332;2023-08-24T17:19:49;30.30;51.70
43320;DHT22;28914;48.722;9.332;2023-08-24T17:25:08;30.20;51.90
43320;DHT22;28914;48.722;9.332;2023-08-24T17:30:28;30.10;51.80
43320;DHT22;28914;48.722;9.332;2023-08-24T17:35:47;30.10;51.70
43320;DHT22;28914;48.722;9.332;2023-08-24T17:41:07;30.10;51.90
43320;DHT22;28914;48.722;9.332;2023-08-24T17:46:26;30.00;52.00
43320;DHT22;28914;48.722;9.332;2023-08-24T17:51:45;30.00;52.30
43320;DHT22;28914;48.722;9.332;2023-08-24T17:57:04;29.90;52.40
43320;DHT22;28914;48.722;9.332;2023-08-24T18:02:23;29.90;52.70
43320;DHT22;28914;48.722;9.332;2023-08-24T18:07:43;29.80;52.70
43320;DHT22;28914;48.722;9.332;2023-08-24T18:13:02;29.70;53.10
43320;DHT22;28914;48.722;9.332;2023-08-24T18:18:22;29.60;53.20
43320;DHT22;28914;48.722;9.332;2023-08-24T18:23:41;29.50;53.20
43320;DHT22;28914;48.722;9.332;2023-08-24T18:29:01;29.50;53.50
43320;DHT22;28914;48.722;9.332;2023-08-24T18:34:20;29.40;53.80
43320;DHT22;28914;48.722;9.332;2023-08-24T18:39:41;29.30;54.10
43320;DHT22;28914;48.722;9.332;2023-08-24T18:45:06;29.30;54.30
43320;DHT22;28914;48.722;9.332;2023-08-24T18:50:25;29.20;54.90
43320;DHT22;28914;48.722;9.332;2023-08-24T18:55:45;29.20;56.00
43320;DHT22;28914;48.722;9.332;2023-08-24T19:01:04;29.20;56.90
43320;DHT22;28914;48.722;9.332;2023-08-24T19:06:23;29.10;57.30
43320;DHT22;28914;48.722;9.332;2023-08-24T19:11:44;29.10;58.60
43320;DHT22;28914;48.722;9.332;2023-08-24T19:17:03;29.00;59.80
43320;DHT22;28914;48.722;9.332;2023-08-24T19:22:22;28.90;60.10
43320;DHT22;28914;48.722;9.332;2023-08-24T19:27:42;28.90;59.80
43320;DHT22;28914;48.722;9.332;2023-08-24T19:33:01;28.90;61.10
43320;DHT22;28914;48.722;9.332;2023-08-24T19:38:20;28.80;61.60
43320;DHT22;28914;48.722;9.332;2023-08-24T19:43:39;28.60;61.60
43320;DHT22;28914;48.722;9.332;2023-08-24T19:48:58;28.10;69.70
43320;DHT22;28914;48.722;9.332;2023-08-24T19:54:17;27.40;72.00
43320;DHT22;28914;48.722;9.332;2023-08-24T19:59:37;26.80;73.20
43320;DHT22;28914;48.722;9.332;2023-08-24T20:04:56;26.30;74.70
43320;DHT22;28914;48.722;9.332;2023-08-24T20:10:16;25.90;74.80
43320;DHT22;28914;48.722;9.332;2023-08-24T20:15:36;25.70;77.10
43320;DHT22;28914;48.722;9.332;2023-08-24T20:20:55;25.40;77.20
43320;DHT22;28914;48.722;9.332;2023-08-24T20:26:14;25.30;75.60
43320;DHT22;28914;48.722;9.332;2023-08-24T20:31:35;25.20;74.60
43320;DHT22;28914;48.722;9.332;2023-08-24T20:36:55;25.20;75.60
43320;DHT22;28914;48.722;9.332;2023-08-24T20:42:17;25.30;74.70
43320;DHT22;28914;48.722;9.332;2023-08-24T20:47:38;25.20;75.10
43320;DHT22;28914;48.722;9.332;2023-08-24T20:52:57;25.20;76.40
43320;DHT22;28914;48.722;9.332;2023-08-24T20:58:19;25.10;76.10
43320;DHT22;28914;48.722;9.332;2023-08-24T21:03:38;25.10;76.70
43320;DHT22;28914;48.722;9.332;2023-08-24T21:08:57;25.00;77.60
43320;DHT22;28914;48.722;9.332;2023-08-24T21:14:16;24.90;78.30
43320;DHT22;28914;48.722;9.332;2023-08-24T21:19:35;24.80;81.10
43320;DHT22;28914;48.722;9.332;2023-08-24T21:24:54;24.80;80.10
43320;DHT22;28914;48.722;9.332;2023-08-24T21:30:17;24.70;79.60
43320;DHT22;28914;48.722;9.332;2023-08-24T21:35:37;24.60;83.90
43320;DHT22;28914;48.722;9.332;2023-08-24T21:40:56;24.50;82.60
43320;DHT22;28914;48.722;9.332;2023-08-24T21:46:15;24.40;82.10
43320;DHT22;28914;48.722;9.332;2023-08-24T21:51:34;24.40;81.40
43320;DHT22;28914;48.722;9.332;2023-08-24T21:56:53;24.30;81.80
43320;DHT22;28914;48.722;9.332;2023-08-24T22:02:13;24.30;82.30
43320;DHT22;28914;48.722;9.332;2023-08-24T22:07:32;24.20;82.50
43320;DHT22;28914;48.722;9.332;2023-08-24T22:12:51;24.10;82.40
43320;DHT22;28914;48.722;9.332;2023-08-24T22:18:11;24.10;82.20
43320;DHT22;28914;48.722;9.332;2023-08-24T22:23:30;24.00;82.90
43320;DHT22;28914;48.722;9.332;2023-08-24T22:28:49;24.00;82.80
43320;DHT22;28914;48.722;9.332;2023-08-24T22:34:09;24.00;82.90
43320;DHT22;28914;48.722;9.332;2023-08-24T22:39:28;24.00;84.40
43320;DHT22;28914;48.722;9.332;2023-08-24T22:44:47;23.90;83.80
43320;DHT22;28914;48.722;9.332;2023-08-24T22:50:07;24.00;84.30
43320;DHT22;28914;48.722;9.332;2023-08-24T22:55:26;23.90;83.60
43320;DHT22;28914;48.722;9.332;2023-08-24T23:00:46;23.90;84.10
43320;DHT22;28914;48.722;9.332;2023-08-24T23:06:05;23.80;83.80
43320;DHT22;28914;48.722;9.332;2023-08-24T23:11:24;23.80;85.00
43320;DHT22;28914;48.722;9.332;2023-08-24T23:16:43;23.80;85.70
43320;DHT22;28914;48.722;9.332;2023-08-24T23:22:03;23.80;85.30
43320;DHT22;28914;48.722;9.332;2023-08-24T23:27:22;23.70;84.90
43320;DHT22;28914;48.722;9.332;2023-08-24T23:32:41;23.80;85.90
43320;DHT22;28914;48.722;9.332;2023-08-24T23:38:00;23.70;85.80
43320;DHT22;28914;48.722;9.332;2023-08-24T23:43:20;23.60;85.20
43320;DHT22;28914;48.722;9.332;2023-08-24T23:48:39;23.60;85.70
43320;DHT22;28914;48.722;9.332;2023-08-24T23:53:58;23.60;86.30
43320;DHT22;28914;48.722;9.332;2023-08-24T23:59:18;23.60;86.50
